Time;durP1;ratioP1;P1;durP2;ratioP2;P2;SDS_P1;SDS_P2;PMS_P1;PMS_P2;Temp;Humidity;BMP_temperature;BMP_pressure;BME280_temperature;BME280_humidity;BME280_pressure;Samples;Min_cycle;Max_cycle;Signal;HPM_P1;HPM_P2
2021/03/31 00:09:39;;;;;;;8.05;4.00;;;20.80;38.10;;;;;;20660674;28;20054;-22
2021/03/31 00:19:40;;;;;;;8.75;3.22;;;20.80;38.20;;;;;;20658745;28;20116;-21
2021/03/31 00:29:40;;;;;;;5.57;3.08;;;20.90;38.20;;;;;;20661683;28;20030;-22
2021/03/31 00:39:41;;;;;;;6.68;3.78;;;20.90;38.30;;;;;;20661092;28;20081;-23
2021/03/31 00:49:41;;;;;;;4.78;2.97;;;20.70;38.20;;;;;;20695641;23;20042;-20
2021/03/31 00:59:42;;;;;;;4.82;3.22;;;20.70;38.30;;;;;;20721719;28;20062;-21
2021/03/31 01:09:43;;;;;;;5.90;3.22;;;20.60;38.30;;;;;;20658331;28;20085;-22
2021/03/31 01:20:28;;;;;;;5.18;2.45;;;20.60;38.30;;;;;;20656973;28;20222;-21
2021/03/31 01:31:04;;;;;;;7.50;3.03;;;20.70;38.50;;;;;;20560731;28;20046;-23
2021/03/31 01:41:06;;;;;;;3.95;2.83;;;20.60;38.40;;;;;;20653093;28;20199;-24
2021/03/31 01:51:10;;;;;;;8.20;3.22;;;20.40;38.40;;;;;;20652257;28;20034;-23
2021/03/31 02:01:15;;;;;;;5.60;2.70;;;20.50;38.40;;;;;;20663311;28;20108;-23
2021/03/31 02:11:16;;;;;;;6.80;2.70;;;20.50;38.50;;;;;;20652185;28;20042;-22
2021/03/31 02:21:17;;;;;;;3.13;1.90;;;20.40;38.60;;;;;;20655708;28;20041;-24
2021/03/31 02:31:20;;;;;;;5.95;2.47;;;20.40;38.70;;;;;;20667182;28;20465;-23
2021/03/31 02:41:21;;;;;;;4.40;2.42;;;20.40;38.80;;;;;;20665752;28;20135;-24
2021/03/31 02:51:21;;;;;;;4.32;2.70;;;20.40;38.90;;;;;;20665628;28;20494;-24
2021/03/31 03:01:23;;;;;;;4.57;2.50;;;20.30;38.90;;;;;;20665090;28;20052;-23
2021/03/31 03:11:25;;;;;;;4.80;2.90;;;20.40;39.00;;;;;;20663610;28;20401;-24
2021/03/31 03:21:28;;;;;;;4.05;2.08;;;20.30;38.90;;;;;;20662976;28;20119;-21
2021/03/31 03:31:29;;;;;;;7.00;2.03;;;20.30;39.00;;;;;;20662450;28;20023;-24
2021/03/31 03:41:30;;;;;;;7.43;2.17;;;20.30;39.00;;;;;;20661953;28;20069;-23
2021/03/31 03:51:31;;;;;;;4.35;2.08;;;20.20;39.00;;;;;;20657956;28;20473;-23
2021/03/31 04:01:34;;;;;;;3.75;2.45;;;20.20;39.00;;;;;;20659536;28;20113;-22
2021/03/31 04:11:36;;;;;;;3.45;1.77;;;20.10;39.10;;;;;;20659235;28;20133;-24
2021/03/31 04:21:38;;;;;;;2.67;1.85;;;20.40;38.90;;;;;;20647503;28;20042;-25
2021/03/31 04:31:41;;;;;;;4.95;2.20;;;21.10;37.70;;;;;;20658784;28;20030;-23
2021/03/31 04:41:42;;;;;;;3.10;1.70;;;21.30;36.90;;;;;;20656517;28;20023;-23
2021/03/31 04:51:42;;;;;;;5.00;2.80;;;21.70;36.20;;;;;;20654897;28;20038;-23
2021/03/31 05:01:43;;;;;;;5.13;2.30;;;21.70;36.20;;;;;;20659148;28;20030;-23
2021/03/31 05:11:43;;;;;;;3.53;1.85;;;21.70;36.30;;;;;;20657132;28;20029;-21
2021/03/31 05:21:44;;;;;;;3.85;2.05;;;21.60;36.20;;;;;;20665835;28;20042;-21
2021/03/31 05:31:44;;;;;;;5.07;2.42;;;21.50;36.40;;;;;;20655248;28;20054;-24
2021/03/31 05:41:45;;;;;;;4.78;2.22;;;21.40;36.40;;;;;;20653357;28;20062;-22
2021/03/31 05:51:47;;;;;;;6.10;2.60;;;21.30;36.60;;;;;;20647156;28;20398;-23
2021/03/31 06:01:48;;;;;;;5.70;2.40;;;21.20;36.60;;;;;;20667191;28;20065;-22
2021/03/31 06:11:53;;;;;;;4.95;2.40;;;21.20;36.70;;;;;;20668869;28;20041;-20
2021/03/31 06:32:16;;;;;;;10.18;2.65;;;21.20;36.90;;;;;;20667547;28;20045;-22
2021/03/31 06:42:20;;;;;;;10.60;2.45;;;21.30;37.00;;;;;;20666167;28;20031;-23
2021/03/31 06:52:21;;;;;;;15.73;2.50;;;21.90;36.30;;;;;;20738434;23;20518;-22
2021/03/31 07:02:22;;;;;;;9.18;2.20;;;22.60;35.60;;;;;;20727974;28;20121;-22
2021/03/31 07:12:23;;;;;;;8.82;2.42;;;23.30;34.90;;;;;;20685646;28;20505;-21
2021/03/31 07:22:24;;;;;;;19.25;3.20;;;24.00;34.30;;;;;;20670095;28;20037;-20
2021/03/31 07:32:25;;;;;;;15.25;2.97;;;23.60;34.80;;;;;;20667284;28;20022;-21
2021/03/31 07:42:27;;;;;;;18.63;4.00;;;23.30;35.80;;;;;;20671702;28;20028;-20
2021/03/31 07:52:57;;;;;;;19.40;5.15;;;22.80;36.80;;;;;;20664532;28;20034;-22
2021/03/31 08:02:58;;;;;;;35.47;7.85;;;22.70;37.00;;;;;;20663832;28;20035;-20
2021/03/31 08:13:35;;;;;;;19.35;6.53;;;22.50;36.50;;;;;;20661818;28;20418;-22
2021/03/31 08:23:49;;;;;;;25.23;7.43;;;22.30;36.10;;;;;;20579403;28;20519;-22
2021/03/31 08:33:50;;;;;;;14.35;5.40;;;22.10;36.10;;;;;;20572170;28;20567;-22
2021/03/31 08:43:51;;;;;;;19.20;6.45;;;22.00;36.10;;;;;;20569843;28;20191;-21
2021/03/31 08:53:52;;;;;;;17.38;5.78;;;22.00;36.40;;;;;;20597955;28;20486;-22
2021/03/31 09:04:22;;;;;;;10.15;4.93;;;21.90;36.90;;;;;;21047367;27;20561;-19
2021/03/31 09:14:25;;;;;;;12.00;4.93;;;21.90;36.60;;;;;;20959010;28;20418;-21
2021/03/31 09:24:27;;;;;;;11.40;5.30;;;21.80;36.30;;;;;;20947333;28;20036;-25
2021/03/31 09:34:28;;;;;;;13.25;4.40;;;21.50;35.80;;;;;;20971654;28;20025;-22
2021/03/31 09:44:30;;;;;;;10.85;5.32;;;21.40;35.80;;;;;;20956838;28;20032;-25
2021/03/31 09:54:31;;;;;;;29.33;7.80;;;21.50;35.10;;;;;;20952416;28;20527;-23
2021/03/31 10:04:35;;;;;;;19.67;6.43;;;21.40;36.10;;;;;;20968688;28;20020;-25
2021/03/31 10:14:47;;;;;;;11.45;5.57;;;21.50;36.00;;;;;;20917452;28;20025;-23
2021/03/31 10:24:49;;;;;;;18.65;5.75;;;21.30;35.80;;;;;;20912270;28;20025;-22
2021/03/31 10:34:53;;;;;;;10.18;6.10;;;21.20;35.50;;;;;;20910514;28;20395;-25
2021/03/31 10:55:27;;;;;;;9.70;5.18;;;21.20;35.50;;;;;;20905466;28;20037;-21
2021/03/31 11:05:27;;;;;;;9.23;6.25;;;21.20;35.00;;;;;;20835454;28;20079;-22
2021/03/31 11:15:28;;;;;;;10.15;5.75;;;21.20;34.30;;;;;;20830167;28;20108;-21
2021/03/31 11:25:51;;;;;;;11.07;5.20;;;21.20;34.10;;;;;;20820833;28;20057;-22
2021/03/31 11:35:50;;;;;;;7.65;5.18;;;21.20;34.00;;;;;;20835957;28;20051;-27
2021/03/31 11:45:51;;;;;;;8.93;5.20;;;21.20;32.80;;;;;;20847701;28;20121;-24
2021/03/31 11:55:52;;;;;;;8.65;6.00;;;21.20;32.80;;;;;;20825685;28;20026;-23
2021/03/31 12:05:52;;;;;;;9.20;6.05;;;21.20;33.10;;;;;;20889764;28;20036;-23
2021/03/31 12:15:53;;;;;;;12.90;5.90;;;21.30;32.00;;;;;;20877462;28;20033;-21
2021/03/31 12:25:55;;;;;;;12.70;5.15;;;21.20;32.30;;;;;;20879505;28;20090;-24
2021/03/31 12:35:55;;;;;;;10.45;5.45;;;21.20;32.50;;;;;;20899531;28;20029;-24
2021/03/31 12:45:56;;;;;;;11.07;4.95;;;21.20;32.30;;;;;;20899226;28;20533;-23
2021/03/31 12:55:58;;;;;;;7.90;4.50;;;21.20;32.60;;;;;;20898602;28;20522;-23
2021/03/31 13:05:58;;;;;;;10.43;5.50;;;21.20;32.20;;;;;;20898447;28;20116;-26
2021/03/31 13:26:12;;;;;;;10.40;5.53;;;21.20;32.30;;;;;;20897723;28;20105;-23
2021/03/31 13:36:38;;;;;;;10.82;7.30;;;21.20;32.30;;;;;;20896866;28;20029;-25
2021/03/31 13:46:45;;;;;;;12.30;8.10;;;21.10;29.50;;;;;;20905996;28;20032;-24
2021/03/31 13:56:46;;;;;;;13.20;7.27;;;21.10;28.90;;;;;;20902403;28;20060;-28
2021/03/31 14:06:47;;;;;;;8.30;5.88;;;21.30;28.90;;;;;;20911234;28;20040;-24
2021/03/31 14:16:59;;;;;;;18.65;5.30;;;21.10;28.00;;;;;;20910580;28;20494;-23
2021/03/31 14:27:00;;;;;;;18.20;6.57;;;21.10;30.10;;;;;;20909927;28;20025;-24
2021/03/31 14:37:00;;;;;;;20.30;7.07;;;21.20;31.20;;;;;;20907756;28;20091;-26
2021/03/31 14:47:02;;;;;;;17.77;8.00;;;21.10;30.20;;;;;;20843481;28;20079;-22
2021/03/31 14:57:08;;;;;;;15.02;9.13;;;21.20;29.70;;;;;;20905344;28;20064;-24
2021/03/31 15:07:09;;;;;;;8.90;6.78;;;21.20;29.60;;;;;;20907469;28;20033;-18
2021/03/31 15:17:10;;;;;;;11.30;5.18;;;21.10;29.60;;;;;;20908771;28;20420;-26
2021/03/31 15:27:11;;;;;;;13.23;5.60;;;21.10;29.40;;;;;;20893238;28;20471;-28
2021/03/31 15:37:12;;;;;;;7.15;4.97;;;21.00;29.50;;;;;;20907027;28;20475;-20
2021/03/31 15:57:13;;;;;;;8.65;5.32;;;21.20;29.40;;;;;;20900056;28;20123;-26
2021/03/31 16:07:32;;;;;;;7.53;5.25;;;21.70;29.10;;;;;;20900882;28;20021;-23
2021/03/31 16:17:33;;;;;;;8.45;5.18;;;22.00;29.10;;;;;;20897871;28;20108;-23
2021/03/31 16:37:52;;;;;;;9.65;5.85;;;21.90;29.10;;;;;;20897215;28;20027;-23
2021/03/31 16:47:53;;;;;;;13.45;6.18;;;21.80;29.20;;;;;;20864559;28;20108;-23
2021/03/31 16:57:53;;;;;;;9.25;5.60;;;21.70;29.40;;;;;;20881036;28;20025;-22
2021/03/31 17:07:54;;;;;;;16.70;7.40;;;21.70;29.80;;;;;;20871906;28;20037;-25
2021/03/31 17:17:55;;;;;;;12.32;6.10;;;21.70;29.90;;;;;;20894829;28;20297;-23
2021/03/31 17:27:55;;;;;;;40.95;7.60;;;21.60;30.40;;;;;;20914021;28;20112;-23
2021/03/31 17:37:59;;;;;;;31.52;6.68;;;21.50;34.60;;;;;;20913224;28;20055;-22
2021/03/31 17:48:00;;;;;;;37.40;8.10;;;21.50;35.70;;;;;;20913067;28;20029;-23
2021/03/31 17:58:00;;;;;;;34.47;7.10;;;21.80;38.50;;;;;;20911450;28;20040;-21
2021/03/31 18:08:01;;;;;;;38.65;7.85;;;21.90;40.30;;;;;;20910888;28;20053;-22
2021/03/31 18:18:02;;;;;;;32.22;7.50;;;22.30;39.70;;;;;;20912983;28;20082;-25
2021/03/31 18:28:02;;;;;;;32.63;7.72;;;22.80;38.60;;;;;;20889191;28;20058;-23
2021/03/31 18:38:03;;;;;;;32.60;6.10;;;23.30;37.70;;;;;;20872322;28;20040;-23
2021/03/31 18:48:04;;;;;;;32.25;7.70;;;23.70;37.30;;;;;;20897703;28;20029;-25
2021/03/31 18:58:05;;;;;;;24.08;6.78;;;23.50;37.90;;;;;;20872139;23;20057;-22
2021/03/31 19:18:13;;;;;;;30.05;6.40;;;23.30;38.60;;;;;;20819354;28;20484;-23
2021/03/31 19:28:15;;;;;;;32.22;6.40;;;23.10;38.90;;;;;;20834981;28;20029;-22
2021/03/31 19:38:16;;;;;;;28.42;8.88;;;23.00;39.90;;;;;;20798678;28;20522;-26
2021/03/31 19:48:16;;;;;;;26.50;6.13;;;22.80;38.60;;;;;;20789978;28;20456;-22
2021/03/31 19:58:17;;;;;;;20.08;7.40;;;22.70;38.50;;;;;;20807501;28;20038;-20
2021/03/31 20:08:18;;;;;;;19.23;5.70;;;22.60;38.50;;;;;;20803367;28;20041;-20
2021/03/31 20:18:19;;;;;;;19.27;7.32;;;22.50;38.70;;;;;;20792807;28;20107;-23
2021/03/31 20:28:20;;;;;;;26.67;6.78;;;22.60;39.10;;;;;;20776267;28;20061;-22
2021/03/31 20:38:20;;;;;;;18.05;6.45;;;22.50;39.80;;;;;;20797451;28;20056;-24
2021/03/31 20:48:22;;;;;;;18.63;7.32;;;22.50;39.90;;;;;;20791750;28;20036;-22
2021/03/31 20:58:23;;;;;;;15.02;6.03;;;22.40;40.00;;;;;;20788225;28;20445;-23
2021/03/31 21:08:24;;;;;;;13.57;6.20;;;22.80;39.40;;;;;;20812936;28;20048;-25
2021/03/31 21:18:24;;;;;;;14.25;5.20;;;22.90;39.10;;;;;;20822206;28;20053;-25
2021/03/31 21:28:25;;;;;;;10.82;4.80;;;23.00;38.90;;;;;;20818284;28;20100;-23
2021/03/31 21:38:25;;;;;;;10.35;5.85;;;23.00;38.80;;;;;;20817237;28;20037;-23
2021/03/31 21:48:26;;;;;;;11.05;4.95;;;23.00;39.00;;;;;;20813656;28;20041;-23
2021/03/31 21:58:26;;;;;;;10.38;4.85;;;22.90;39.00;;;;;;20817732;28;20037;-21
2021/03/31 22:08:32;;;;;;;8.60;4.55;;;22.70;39.00;;;;;;20841180;28;20033;-23
2021/03/31 22:18:32;;;;;;;9.27;4.20;;;22.70;39.10;;;;;;20815252;28;20021;-22
2021/03/31 22:28:33;;;;;;;10.07;4.83;;;22.60;39.30;;;;;;20834624;28;20032;-22
2021/03/31 22:38:33;;;;;;;6.63;4.72;;;22.60;39.30;;;;;;20831217;28;20095;-26
2021/03/31 22:48:34;;;;;;;7.30;4.18;;;22.60;39.40;;;;;;20831843;28;20025;-24
2021/03/31 22:58:39;;;;;;;8.80;4.47;;;22.60;39.40;;;;;;20830082;28;20033;-25
2021/03/31 23:08:40;;;;;;;7.57;4.13;;;22.60;39.60;;;;;;20828780;28;20052;-23
2021/03/31 23:18:41;;;;;;;9.52;4.50;;;22.60;39.40;;;;;;20818073;28;20041;-24
2021/03/31 23:28:42;;;;;;;8.63;3.92;;;22.60;39.40;;;;;;20821787;28;20068;-24
2021/03/31 23:38:42;;;;;;;5.60;3.72;;;22.70;39.20;;;;;;20824605;28;20021;-25
2021/03/31 23:48:43;;;;;;;7.05;4.18;;;22.50;39.40;;;;;;20798664;28;20055;-25
2021/03/31 23:58:43;;;;;;;6.90;3.53;;;22.60;39.70;;;;;;20783490;28;20069;-24
